TimeCST,TemperatureF,Dew PointF,Humidity,Sea Level PressureIn,VisibilityMPH,Wind Direction,Wind SpeedMPH,Gust SpeedMPH,PrecipitationIn,Events,Conditions,WindDirDegrees,DateUTC
12:53 AM,30.0,27.0,88,30.22,10.0,Calm,Calm,-,N/A,,Clear,0,2013-01-08 06:53:00
1:53 AM,30.0,28.0,92,30.23,10.0,Calm,Calm,-,N/A,,Clear,0,2013-01-08 07:53:00
2:53 AM,30.9,28.0,89,30.22,10.0,Calm,Calm,-,N/A,,Clear,0,2013-01-08 08:53:00
3:53 AM,30.9,28.0,89,30.20,9.0,Calm,Calm,-,N/A,,Clear,0,2013-01-08 09:53:00
4:53 AM,30.0,27.0,88,30.22,10.0,Calm,Calm,-,N/A,,Clear,0,2013-01-08 10:53:00
5:53 AM,30.0,28.0,92,30.23,10.0,Calm,Calm,-,N/A,,Clear,0,2013-01-08 11:53:00
6:53 AM,30.0,27.0,88,30.25,10.0,Calm,Calm,-,N/A,,Clear,0,2013-01-08 12:53:00
7:53 AM,32.0,28.9,88,30.26,10.0,ESE,3.5,-,N/A,,Partly Cloudy,120,2013-01-08 13:53:00
8:53 AM,41.0,34.0,76,30.28,10.0,SE,3.5,-,N/A,,Clear,130,2013-01-08 14:53:00
9:53 AM,45.0,34.0,65,30.28,10.0,SSE,5.8,-,N/A,,Clear,160,2013-01-08 15:53:00
10:53 AM,52.0,37.0,57,30.26,10.0,SSE,10.4,-,N/A,,Clear,160,2013-01-08 16:53:00
11:53 AM,53.1,37.0,55,30.22,10.0,South,6.9,-,N/A,,Clear,180,2013-01-08 17:53:00
12:53 PM,55.9,37.9,51,30.19,10.0,SSW,8.1,-,N/A,,Partly Cloudy,200,2013-01-08 18:53:00
1:53 PM,55.0,37.9,53,30.17,10.0,SSE,5.8,-,N/A,,Partly Cloudy,160,2013-01-08 19:53:00
2:53 PM,55.9,37.9,51,30.17,10.0,Calm,Calm,-,N/A,,Overcast,0,2013-01-08 20:53:00
3:53 PM,54.0,39.9,59,30.17,10.0,SSE,5.8,-,N/A,,Scattered Clouds,150,2013-01-08 21:53:00
4:53 PM,52.0,39.0,61,30.18,10.0,Calm,Calm,-,N/A,,Clear,0,2013-01-08 22:53:00
5:53 PM,48.0,37.9,68,30.17,10.0,NE,3.5,-,N/A,,Clear,50,2013-01-08 23:53:00
6:53 PM,48.0,37.9,68,30.17,10.0,ENE,3.5,-,N/A,,Clear,60,2013-01-09 00:53:00
7:53 PM,50.0,37.0,61,30.17,10.0,East,3.5,-,N/A,,Clear,100,2013-01-09 01:53:00
8:53 PM,48.0,37.9,68,30.16,10.0,Calm,Calm,-,N/A,,Clear,0,2013-01-09 02:53:00
9:53 PM,46.0,37.9,73,30.18,10.0,SE,3.5,-,N/A,,Clear,140,2013-01-09 03:53:00